sensor_id;sensor_type;location;lat;lon;timestamp;pressure;altitude;pressure_sealevel;temperature;humidity
6038;BME280;3047;42.600;23.470;2023-04-02T00:02:30;92205.97;;;8.18;82.96
6038;BME280;3047;42.600;23.470;2023-04-02T00:08:28;92171.75;;;8.14;79.39
6038;BME280;3047;42.600;23.470;2023-04-02T00:11:03;92158.06;;;7.97;81.55
6038;BME280;3047;42.600;23.470;2023-04-02T00:13:33;92181.72;;;8.16;79.76
6038;BME280;3047;42.600;23.470;2023-04-02T00:16:04;92187.69;;;8.38;79.96
6038;BME280;3047;42.600;23.470;2023-04-02T00:18:32;92163.63;;;8.06;80.87
6038;BME280;3047;42.600;23.470;2023-04-02T00:21:08;92169.97;;;8.16;80.66
6038;BME280;3047;42.600;23.470;2023-04-02T00:23:37;92194.06;;;8.24;80.44
6038;BME280;3047;42.600;23.470;2023-04-02T00:26:05;92185.47;;;8.29;79.50
6038;BME280;3047;42.600;23.470;2023-04-02T00:28:32;92178.69;;;8.31;79.53
6038;BME280;3047;42.600;23.470;2023-04-02T00:30:59;92116.94;;;7.99;79.43
6038;BME280;3047;42.600;23.470;2023-04-02T00:33:29;92173.28;;;8.44;78.33
6038;BME280;3047;42.600;23.470;2023-04-02T00:35:56;92172.56;;;8.40;78.67
6038;BME280;3047;42.600;23.470;2023-04-02T00:38:25;92170.94;;;8.39;79.45
6038;BME280;3047;42.600;23.470;2023-04-02T00:40:55;92176.72;;;8.41;80.00
6038;BME280;3047;42.600;23.470;2023-04-02T00:43:23;92182.28;;;8.49;77.81
6038;BME280;3047;42.600;23.470;2023-04-02T00:45:54;92176.59;;;8.44;78.54
6038;BME280;3047;42.600;23.470;2023-04-02T00:48:39;92179.16;;;8.42;79.10
6038;BME280;3047;42.600;23.470;2023-04-02T00:51:16;92174.72;;;8.51;78.56
6038;BME280;3047;42.600;23.470;2023-04-02T00:53:46;92165.19;;;8.34;79.12
6038;BME280;3047;42.600;23.470;2023-04-02T00:56:18;92183.53;;;8.37;81.66
6038;BME280;3047;42.600;23.470;2023-04-02T00:58:50;92172.66;;;8.37;83.75
6038;BME280;3047;42.600;23.470;2023-04-02T01:01:22;92171.50;;;8.21;84.43
6038;BME280;3047;42.600;23.470;2023-04-02T01:03:56;92174.19;;;8.16;85.48
6038;BME280;3047;42.600;23.470;2023-04-02T01:06:25;92171.47;;;7.97;86.43
6038;BME280;3047;42.600;23.470;2023-04-02T01:09:08;92146.53;;;7.66;85.87
6038;BME280;3047;42.600;23.470;2023-04-02T01:12:02;92169.75;;;7.73;86.58
6038;BME280;3047;42.600;23.470;2023-04-02T01:14:43;92168.06;;;7.73;86.14
6038;BME280;3047;42.600;23.470;2023-04-02T01:17:19;92181.91;;;7.85;86.52
6038;BME280;3047;42.600;23.470;2023-04-02T01:20:12;92181.66;;;7.94;86.69
6038;BME280;3047;42.600;23.470;2023-04-02T01:22:52;92188.41;;;7.92;87.18
6038;BME280;3047;42.600;23.470;2023-04-02T01:25:26;92163.66;;;7.80;88.35
6038;BME280;3047;42.600;23.470;2023-04-02T01:28:00;92173.31;;;7.67;87.81
6038;BME280;3047;42.600;23.470;2023-04-02T01:30:32;92189.69;;;7.52;89.65
6038;BME280;3047;42.600;23.470;2023-04-02T01:33:01;92186.66;;;7.41;90.17
6038;BME280;3047;42.600;23.470;2023-04-02T01:35:31;92178.97;;;7.47;89.64
6038;BME280;3047;42.600;23.470;2023-04-02T01:38:05;92137.25;;;7.15;90.87
6038;BME280;3047;42.600;23.470;2023-04-02T01:40:38;92191.00;;;7.37;92.97
6038;BME280;3047;42.600;23.470;2023-04-02T01:43:14;92187.38;;;7.46;93.66
6038;BME280;3047;42.600;23.470;2023-04-02T01:45:43;92166.94;;;7.29;94.93
6038;BME280;3047;42.600;23.470;2023-04-02T01:48:13;92186.72;;;7.39;96.43
6038;BME280;3047;42.600;23.470;2023-04-02T01:50:43;92178.69;;;7.28;97.46
6038;BME280;3047;42.600;23.470;2023-04-02T01:53:12;92161.53;;;7.14;97.62
6038;BME280;3047;42.600;23.470;2023-04-02T01:55:43;92169.16;;;6.83;97.97
6038;BME280;3047;42.600;23.470;2023-04-02T01:58:11;92166.72;;;6.82;98.55
6038;BME280;3047;42.600;23.470;2023-04-02T02:00:44;92173.66;;;6.72;98.44
6038;BME280;3047;42.600;23.470;2023-04-02T02:03:13;92176.28;;;6.69;98.59
6038;BME280;3047;42.600;23.470;2023-04-02T02:05:40;92157.41;;;6.56;98.93
6038;BME280;3047;42.600;23.470;2023-04-02T02:08:15;92162.31;;;6.60;99.35
6038;BME280;3047;42.600;23.470;2023-04-02T02:10:48;92169.50;;;6.71;98.94
6038;BME280;3047;42.600;23.470;2023-04-02T02:13:15;92128.81;;;6.61;97.48
6038;BME280;3047;42.600;23.470;2023-04-02T02:15:44;92152.81;;;6.70;97.40
6038;BME280;3047;42.600;23.470;2023-04-02T02:18:11;92183.31;;;6.86;97.06
6038;BME280;3047;42.600;23.470;2023-04-02T02:20:39;92171.19;;;6.71;97.69
6038;BME280;3047;42.600;23.470;2023-04-02T02:23:05;92149.88;;;6.56;98.21
6038;BME280;3047;42.600;23.470;2023-04-02T02:25:34;92164.16;;;6.54;98.64
6038;BME280;3047;42.600;23.470;2023-04-02T02:28:04;92167.94;;;6.68;98.06
6038;BME280;3047;42.600;23.470;2023-04-02T02:30:34;92170.38;;;6.70;97.03
6038;BME280;3047;42.600;23.470;2023-04-02T02:33:06;92176.09;;;6.75;98.00
6038;BME280;3047;42.600;23.470;2023-04-02T02:35:37;92178.50;;;6.78;97.11
6038;BME280;3047;42.600;23.470;2023-04-02T02:38:39;92115.25;;;6.39;96.92
6038;BME280;3047;42.600;23.470;2023-04-02T02:41:14;92167.00;;;6.71;96.87
6038;BME280;3047;42.600;23.470;2023-04-02T02:43:47;92173.56;;;6.77;97.45
6038;BME280;3047;42.600;23.470;2023-04-02T02:46:17;92111.28;;;6.60;96.35
6038;BME280;3047;42.600;23.470;2023-04-02T02:48:47;92161.91;;;7.02;93.22
6038;BME280;3047;42.600;23.470;2023-04-02T02:51:19;92167.69;;;7.04;93.36
6038;BME280;3047;42.600;23.470;2023-04-02T02:53:49;92139.63;;;6.91;92.71
6038;BME280;3047;42.600;23.470;2023-04-02T02:56:20;92161.41;;;7.19;91.37
6038;BME280;3047;42.600;23.470;2023-04-02T02:58:50;92161.25;;;7.24;93.50
6038;BME280;3047;42.600;23.470;2023-04-02T03:01:17;92170.25;;;7.31;92.73
6038;BME280;3047;42.600;23.470;2023-04-02T03:03:46;92170.63;;;7.18;94.22
6038;BME280;3047;42.600;23.470;2023-04-02T03:06:15;92165.91;;;7.09;95.76
6038;BME280;3047;42.600;23.470;2023-04-02T03:08:48;92159.34;;;7.04;96.16
6038;BME280;3047;42.600;23.470;2023-04-02T03:11:22;92128.03;;;6.89;94.61
6038;BME280;3047;42.600;23.470;2023-04-02T03:13:56;92149.97;;;7.09;92.36
6038;BME280;3047;42.600;23.470;2023-04-02T03:16:30;92165.75;;;7.14;92.44
6038;BME280;3047;42.600;23.470;2023-04-02T03:19:03;92153.50;;;7.03;94.68
6038;BME280;3047;42.600;23.470;2023-04-02T03:21:35;92186.97;;;7.32;94.42
6038;BME280;3047;42.600;23.470;2023-04-02T03:24:10;92183.72;;;7.28;95.46
6038;BME280;3047;42.600;23.470;2023-04-02T03:26:41;92180.47;;;7.25;96.47
6038;BME280;3047;42.600;23.470;2023-04-02T03:29:14;92178.75;;;7.27;96.09
6038;BME280;3047;42.600;23.470;2023-04-02T03:31:45;92177.97;;;7.25;96.47
6038;BME280;3047;42.600;23.470;2023-04-02T03:34:17;92184.59;;;7.27;95.81
6038;BME280;3047;42.600;23.470;2023-04-02T03:36:51;92115.50;;;6.87;96.02
6038;BME280;3047;42.600;23.470;2023-04-02T03:39:25;92164.22;;;7.08;95.99
6038;BME280;3047;42.600;23.470;2023-04-02T03:41:59;92193.31;;;7.15;96.31
6038;BME280;3047;42.600;23.470;2023-04-02T03:44:30;92200.63;;;6.95;97.42
6038;BME280;3047;42.600;23.470;2023-04-02T03:47:02;92132.22;;;6.59;96.66
6038;BME280;3047;42.600;23.470;2023-04-02T03:49:34;92123.06;;;6.58;95.35
6038;BME280;3047;42.600;23.470;2023-04-02T03:52:04;92195.69;;;6.92;95.65
6038;BME280;3047;42.600;23.470;2023-04-02T03:54:31;92188.56;;;6.49;97.32
6038;BME280;3047;42.600;23.470;2023-04-02T03:56:58;92181.44;;;6.33;98.41
6038;BME280;3047;42.600;23.470;2023-04-02T03:59:33;92186.69;;;6.55;98.72
6038;BME280;3047;42.600;23.470;2023-04-02T04:02:11;92193.25;;;6.59;98.22
6038;BME280;3047;42.600;23.470;2023-04-02T04:04:43;92187.16;;;6.68;97.04
6038;BME280;3047;42.600;23.470;2023-04-02T04:07:18;92181.78;;;6.51;96.65
6038;BME280;3047;42.600;23.470;2023-04-02T04:09:49;92186.56;;;6.60;95.90
6038;BME280;3047;42.600;23.470;2023-04-02T04:12:25;91959.63;;;5.27;94.10
6038;BME280;3047;42.600;23.470;2023-04-02T04:14:57;92193.34;;;6.86;92.30
6038;BME280;3047;42.600;23.470;2023-04-02T04:17:32;92179.38;;;6.77;91.90
6038;BME280;3047;42.600;23.470;2023-04-02T04:20:13;92200.84;;;6.87;92.03
6038;BME280;3047;42.600;23.470;2023-04-02T04:22:41;92202.53;;;6.87;91.96
6038;BME280;3047;42.600;23.470;2023-04-02T04:25:19;92211.44;;;6.97;90.93
6038;BME280;3047;42.600;23.470;2023-04-02T04:27:55;92148.63;;;6.71;88.33
6038;BME280;3047;42.600;23.470;2023-04-02T04:30:33;92219.31;;;7.14;89.38
6038;BME280;3047;42.600;23.470;2023-04-02T04:33:12;92230.00;;;7.21;90.06
6038;BME280;3047;42.600;23.470;2023-04-02T04:35:45;92228.53;;;7.14;90.74
6038;BME280;3047;42.600;23.470;2023-04-02T04:38:17;92221.22;;;7.06;91.43
6038;BME280;3047;42.600;23.470;2023-04-02T04:40:54;92231.78;;;7.17;91.83
6038;BME280;3047;42.600;23.470;2023-04-02T04:43:29;92188.13;;;6.93;90.89
6038;BME280;3047;42.600;23.470;2023-04-02T04:46:01;92205.84;;;6.87;91.48
6038;BME280;3047;42.600;23.470;2023-04-02T04:48:33;92229.69;;;7.02;91.88
6038;BME280;3047;42.600;23.470;2023-04-02T04:51:04;92163.63;;;6.72;93.53
6038;BME280;3047;42.600;23.470;2023-04-02T04:53:44;92225.09;;;7.16;93.50
6038;BME280;3047;42.600;23.470;2023-04-02T04:56:13;92228.00;;;7.03;93.81
6038;BME280;3047;42.600;23.470;2023-04-02T04:58:47;92230.44;;;7.06;94.15
6038;BME280;3047;42.600;23.470;2023-04-02T05:01:17;92230.00;;;7.21;94.55
6038;BME280;3047;42.600;23.470;2023-04-02T05:03:51;92183.63;;;7.03;93.71
6038;BME280;3047;42.600;23.470;2023-04-02T05:06:31;92227.66;;;7.43;94.18
6038;BME280;3047;42.600;23.470;2023-04-02T05:09:05;92199.75;;;7.24;94.18
6038;BME280;3047;42.600;23.470;2023-04-02T05:11:37;92233.41;;;7.47;94.50
6038;BME280;3047;42.600;23.470;2023-04-02T05:14:07;92231.44;;;7.56;94.34
6038;BME280;3047;42.600;23.470;2023-04-02T05:16:44;92158.00;;;7.20;93.02
6038;BME280;3047;42.600;23.470;2023-04-02T05:19:17;92221.06;;;7.65;91.83
6038;BME280;3047;42.600;23.470;2023-04-02T05:21:50;92197.84;;;7.59;93.80
6038;BME280;3047;42.600;23.470;2023-04-02T05:24:35;92214.66;;;7.83;91.42
6038;BME280;3047;42.600;23.470;2023-04-02T05:27:11;92206.16;;;7.61;92.84
6038;BME280;3047;42.600;23.470;2023-04-02T05:29:43;92224.63;;;7.86;92.40
6038;BME280;3047;42.600;23.470;2023-04-02T05:32:14;92216.06;;;7.92;91.93
6038;BME280;3047;42.600;23.470;2023-04-02T05:34:47;92241.03;;;8.23;92.60
6038;BME280;3047;42.600;23.470;2023-04-02T05:37:20;92207.69;;;8.16;90.59
6038;BME280;3047;42.600;23.470;2023-04-02T05:39:51;92237.28;;;8.35;90.81
6038;BME280;3047;42.600;23.470;2023-04-02T05:42:21;92237.28;;;8.35;89.31
6038;BME280;3047;42.600;23.470;2023-04-02T05:45:00;92244.19;;;8.55;87.79
6038;BME280;3047;42.600;23.470;2023-04-02T05:47:31;92234.44;;;8.69;87.11
6038;BME280;3047;42.600;23.470;2023-04-02T05:50:13;92260.03;;;9.05;87.08
6038;BME280;3047;42.600;23.470;2023-04-02T05:52:48;92247.69;;;9.21;86.63
6038;BME280;3047;42.600;23.470;2023-04-02T05:55:29;92199.50;;;9.07;82.68
6038;BME280;3047;42.600;23.470;2023-04-02T05:58:01;92280.16;;;9.52;82.25
6038;BME280;3047;42.600;23.470;2023-04-02T06:00:56;92269.47;;;9.46;81.25
6038;BME280;3047;42.600;23.470;2023-04-02T06:03:32;92287.81;;;9.71;82.14
6038;BME280;3047;42.600;23.470;2023-04-02T06:06:05;92276.53;;;9.81;79.22
6038;BME280;3047;42.600;23.470;2023-04-02T06:08:41;92280.50;;;10.09;76.70
6038;BME280;3047;42.600;23.470;2023-04-02T06:11:11;92270.25;;;10.12;78.63
6038;BME280;3047;42.600;23.470;2023-04-02T06:13:39;92284.41;;;10.38;77.25
6038;BME280;3047;42.600;23.470;2023-04-02T06:16:06;92282.69;;;10.59;77.07
6038;BME280;3047;42.600;23.470;2023-04-02T06:18:34;92284.81;;;10.88;74.14
6038;BME280;3047;42.600;23.470;2023-04-02T06:21:04;92199.50;;;10.35;74.78
6038;BME280;3047;42.600;23.470;2023-04-02T06:23:34;92280.25;;;10.97;73.28
6038;BME280;3047;42.600;23.470;2023-04-02T06:26:11;92280.53;;;11.09;74.04
6038;BME280;3047;42.600;23.470;2023-04-02T06:28:45;92155.19;;;10.49;71.44
6038;BME280;3047;42.600;23.470;2023-04-02T06:31:24;92283.31;;;11.43;71.84
6038;BME280;3047;42.600;23.470;2023-04-02T06:33:53;92283.59;;;11.55;71.02
6038;BME280;3047;42.600;23.470;2023-04-02T06:36:20;92295.50;;;11.71;70.40
6038;BME280;3047;42.600;23.470;2023-04-02T06:38:49;92239.78;;;11.36;69.93
6038;BME280;3047;42.600;23.470;2023-04-02T06:41:20;92272.97;;;11.85;67.97
6038;BME280;3047;42.600;23.470;2023-04-02T06:43:50;92288.06;;;12.05;66.65
6038;BME280;3047;42.600;23.470;2023-04-02T06:46:22;92282.53;;;12.15;67.31
6038;BME280;3047;42.600;23.470;2023-04-02T06:48:55;92173.00;;;11.40;66.22
6038;BME280;3047;42.600;23.470;2023-04-02T06:51:27;92285.59;;;12.04;68.46
6038;BME280;3047;42.600;23.470;2023-04-02T06:53:55;92298.78;;;12.10;67.13
6038;BME280;3047;42.600;23.470;2023-04-02T06:56:35;92286.28;;;12.07;68.72
6038;BME280;3047;42.600;23.470;2023-04-02T06:59:05;92285.28;;;12.10;71.00
6038;BME280;3047;42.600;23.470;2023-04-02T07:01:35;92243.16;;;12.09;68.20
6038;BME280;3047;42.600;23.470;2023-04-02T07:04:03;92250.31;;;12.18;67.54
6038;BME280;3047;42.600;23.470;2023-04-02T07:06:30;92290.69;;;12.73;67.83
6038;BME280;3047;42.600;23.470;2023-04-02T07:08:57;92303.44;;;12.89;64.89
6038;BME280;3047;42.600;23.470;2023-04-02T07:11:26;92244.28;;;12.55;64.10
6038;BME280;3047;42.600;23.470;2023-04-02T07:13:53;92306.69;;;12.91;63.02
6038;BME280;3047;42.600;23.470;2023-04-02T07:16:21;92311.91;;;12.88;64.56
6038;BME280;3047;42.600;23.470;2023-04-02T07:18:49;92312.81;;;12.87;67.52
6038;BME280;3047;42.600;23.470;2023-04-02T07:21:16;92296.13;;;12.83;66.88
6038;BME280;3047;42.600;23.470;2023-04-02T07:23:43;92312.56;;;13.09;66.35
6038;BME280;3047;42.600;23.470;2023-04-02T07:26:13;92270.06;;;13.14;63.01
6038;BME280;3047;42.600;23.470;2023-04-02T07:28:41;92290.44;;;13.46;64.56
6038;BME280;3047;42.600;23.470;2023-04-02T07:31:14;92265.69;;;13.16;63.91
6038;BME280;3047;42.600;23.470;2023-04-02T07:33:42;92222.94;;;13.10;63.45
6038;BME280;3047;42.600;23.470;2023-04-02T07:36:13;92299.56;;;13.32;66.71
6038;BME280;3047;42.600;23.470;2023-04-02T07:38:41;92297.63;;;13.53;64.92
6038;BME280;3047;42.600;23.470;2023-04-02T07:41:09;92267.00;;;13.25;64.25
6038;BME280;3047;42.600;23.470;2023-04-02T07:43:36;92326.13;;;13.58;66.30
6038;BME280;3047;42.600;23.470;2023-04-02T07:46:05;92322.59;;;13.93;62.75
6038;BME280;3047;42.600;23.470;2023-04-02T07:48:32;92319.81;;;13.97;63.62
6038;BME280;3047;42.600;23.470;2023-04-02T07:50:59;92213.81;;;13.39;62.16
6038;BME280;3047;42.600;23.470;2023-04-02T07:53:30;92321.06;;;14.06;60.06
6038;BME280;3047;42.600;23.470;2023-04-02T07:55:59;92328.59;;;13.92;60.96
6038;BME280;3047;42.600;23.470;2023-04-02T07:58:27;92326.88;;;13.92;61.23
6038;BME280;3047;42.600;23.470;2023-04-02T08:00:55;92287.88;;;13.93;61.27
6038;BME280;3047;42.600;23.470;2023-04-02T08:03:23;92328.31;;;14.44;62.35
6038;BME280;3047;42.600;23.470;2023-04-02T08:05:51;92323.13;;;14.45;61.54
6038;BME280;3047;42.600;23.470;2023-04-02T08:08:19;92306.63;;;14.38;58.93
6038;BME280;3047;42.600;23.470;2023-04-02T08:10:46;92322.31;;;14.61;58.99
6038;BME280;3047;42.600;23.470;2023-04-02T08:13:13;92311.03;;;14.34;59.89
6038;BME280;3047;42.600;23.470;2023-04-02T08:15:40;92324.31;;;14.55;60.56
6038;BME280;3047;42.600;23.470;2023-04-02T08:18:10;92305.66;;;14.71;58.24
6038;BME280;3047;42.600;23.470;2023-04-02T08:20:38;92336.22;;;15.14;55.18
6038;BME280;3047;42.600;23.470;2023-04-02T08:23:12;92329.69;;;15.09;58.70
6038;BME280;3047;42.600;23.470;2023-04-02T08:25:39;92323.88;;;15.22;56.48
6038;BME280;3047;42.600;23.470;2023-04-02T08:28:06;92298.28;;;15.25;58.17
6038;BME280;3047;42.600;23.470;2023-04-02T08:30:33;92312.06;;;15.35;57.53
6038;BME280;3047;42.600;23.470;2023-04-02T08:33:00;92331.91;;;15.58;56.18
6038;BME280;3047;42.600;23.470;2023-04-02T08:35:27;92338.19;;;15.67;55.73
6038;BME280;3047;42.600;23.470;2023-04-02T08:37:56;92326.91;;;15.71;56.04
6038;BME280;3047;42.600;23.470;2023-04-02T08:40:26;92285.47;;;15.69;54.92
6038;BME280;3047;42.600;23.470;2023-04-02T08:43:05;92309.97;;;15.99;53.97
6038;BME280;3047;42.600;23.470;2023-04-02T08:45:44;92329.84;;;16.21;53.10
6038;BME280;3047;42.600;23.470;2023-04-02T08:48:13;92327.13;;;16.10;51.78
6038;BME280;3047;42.600;23.470;2023-04-02T08:50:44;92312.16;;;15.91;53.95
6038;BME280;3047;42.600;23.470;2023-04-02T08:53:14;92327.78;;;15.99;54.12
6038;BME280;3047;42.600;23.470;2023-04-02T08:55:48;92298.53;;;15.63;52.72
6038;BME280;3047;42.600;23.470;2023-04-02T08:58:28;92335.53;;;15.83;51.82
6038;BME280;3047;42.600;23.470;2023-04-02T09:00:59;92311.91;;;15.67;55.07
6038;BME280;3047;42.600;23.470;2023-04-02T09:03:29;92329.56;;;15.70;56.12
6038;BME280;3047;42.600;23.470;2023-04-02T09:05:58;92317.19;;;15.78;54.62
6038;BME280;3047;42.600;23.470;2023-04-02T09:08:30;92307.47;;;15.85;55.98
6038;BME280;3047;42.600;23.470;2023-04-02T09:11:01;92321.59;;;16.03;52.41
6038;BME280;3047;42.600;23.470;2023-04-02T09:13:30;92298.72;;;15.60;56.16
6038;BME280;3047;42.600;23.470;2023-04-02T09:16:03;92312.56;;;15.56;55.85
6038;BME280;3047;42.600;23.470;2023-04-02T09:18:32;92330.91;;;15.61;53.37
6038;BME280;3047;42.600;23.470;2023-04-02T09:21:01;92325.63;;;15.64;56.58
6038;BME280;3047;42.600;23.470;2023-04-02T09:23:35;92327.09;;;15.97;51.93
6038;BME280;3047;42.600;23.470;2023-04-02T09:26:19;92311.97;;;15.94;52.56
6038;BME280;3047;42.600;23.470;2023-04-02T09:28:47;92317.19;;;15.92;51.92
6038;BME280;3047;42.600;23.470;2023-04-02T09:31:18;92315.75;;;15.74;54.20
6038;BME280;3047;42.600;23.470;2023-04-02T09:33:47;92316.34;;;15.63;54.22
6038;BME280;3047;42.600;23.470;2023-04-02T09:36:33;92252.22;;;15.44;52.60
6038;BME280;3047;42.600;23.470;2023-04-02T09:39:14;92304.22;;;16.10;51.21
6038;BME280;3047;42.600;23.470;2023-04-02T09:41:41;92287.97;;;16.25;51.27
6038;BME280;3047;42.600;23.470;2023-04-02T09:44:17;92293.34;;;16.20;49.82
6038;BME280;3047;42.600;23.470;2023-04-02T09:46:52;92305.94;;;16.36;49.19
6038;BME280;3047;42.600;23.470;2023-04-02T09:49:22;92278.25;;;16.17;48.52
6038;BME280;3047;42.600;23.470;2023-04-02T09:52:20;92304.91;;;16.12;50.93
6038;BME280;3047;42.600;23.470;2023-04-02T09:55:17;92299.06;;;15.97;46.64
6038;BME280;3047;42.600;23.470;2023-04-02T09:57:45;92294.78;;;16.24;45.97
6038;BME280;3047;42.600;23.470;2023-04-02T10:00:18;92251.13;;;16.16;44.42
6038;BME280;3047;42.600;23.470;2023-04-02T10:02:59;92268.56;;;15.95;45.07
6038;BME280;3047;42.600;23.470;2023-04-02T10:05:27;92245.63;;;16.10;46.04
6038;BME280;3047;42.600;23.470;2023-04-02T10:08:05;92286.13;;;16.27;46.67
6038;BME280;3047;42.600;23.470;2023-04-02T10:10:37;92280.69;;;16.19;45.36
6038;BME280;3047;42.600;23.470;2023-04-02T10:13:08;92282.44;;;16.18;46.74
6038;BME280;3047;42.600;23.470;2023-04-02T10:15:43;92278.88;;;15.94;46.15
6038;BME280;3047;42.600;23.470;2023-04-02T10:18:19;92270.81;;;15.73;47.56
6038;BME280;3047;42.600;23.470;2023-04-02T10:20:49;92268.00;;;15.49;48.91
6038;BME280;3047;42.600;23.470;2023-04-02T10:23:17;92254.38;;;15.21;49.62
6038;BME280;3047;42.600;23.470;2023-04-02T10:25:50;92253.47;;;15.22;47.98
6038;BME280;3047;42.600;23.470;2023-04-02T10:28:31;92278.00;;;15.38;47.67
6038;BME280;3047;42.600;23.470;2023-04-02T10:31:02;92254.50;;;15.20;49.17
6038;BME280;3047;42.600;23.470;2023-04-02T10:33:35;92274.13;;;15.32;49.60
6038;BME280;3047;42.600;23.470;2023-04-02T10:36:10;92261.72;;;15.54;52.38
6038;BME280;3047;42.600;23.470;2023-04-02T10:38:42;92277.09;;;15.81;48.84
6038;BME280;3047;42.600;23.470;2023-04-02T10:41:21;92275.16;;;16.12;48.69
6038;BME280;3047;42.600;23.470;2023-04-02T10:44:12;92238.38;;;16.16;51.00
6038;BME280;3047;42.600;23.470;2023-04-02T10:46:49;92276.59;;;16.43;48.60
6038;BME280;3047;42.600;23.470;2023-04-02T10:49:23;92278.75;;;16.37;41.65
6038;BME280;3047;42.600;23.470;2023-04-02T10:51:57;92279.47;;;16.51;43.70
6038;BME280;3047;42.600;23.470;2023-04-02T10:54:42;92276.44;;;16.59;42.82
6038;BME280;3047;42.600;23.470;2023-04-02T10:57:21;92270.22;;;16.63;42.50
6038;BME280;3047;42.600;23.470;2023-04-02T10:59:55;92264.94;;;16.66;43.27
6038;BME280;3047;42.600;23.470;2023-04-02T11:02:29;92241.03;;;16.54;43.12
6038;BME280;3047;42.600;23.470;2023-04-02T11:05:00;92266.84;;;16.90;43.58
6038;BME280;3047;42.600;23.470;2023-04-02T11:07:42;92265.00;;;17.04;43.99
6038;BME280;3047;42.600;23.470;2023-04-02T11:10:14;92253.34;;;16.88;45.87
6038;BME280;3047;42.600;23.470;2023-04-02T11:12:50;92263.97;;;16.94;44.33
6038;BME280;3047;42.600;23.470;2023-04-02T11:15:21;92258.97;;;16.93;45.67
6038;BME280;3047;42.600;23.470;2023-04-02T11:17:48;92269.63;;;16.72;47.11
6038;BME280;3047;42.600;23.470;2023-04-02T11:20:41;92260.19;;;16.74;47.26
6038;BME280;3047;42.600;23.470;2023-04-02T11:23:09;92228.50;;;16.64;46.63
6038;BME280;3047;42.600;23.470;2023-04-02T11:25:37;92262.00;;;16.85;46.67
6038;BME280;3047;42.600;23.470;2023-04-02T11:28:25;92258.25;;;16.91;48.23
6038;BME280;3047;42.600;23.470;2023-04-02T11:30:54;92242.34;;;16.87;45.97
6038;BME280;3047;42.600;23.470;2023-04-02T11:33:37;92245.09;;;16.97;46.74
6038;BME280;3047;42.600;23.470;2023-04-02T11:39:08;92248.88;;;17.04;46.19
6038;BME280;3047;42.600;23.470;2023-04-02T11:42:00;92245.63;;;17.15;46.92
6038;BME280;3047;42.600;23.470;2023-04-02T11:44:29;92230.09;;;17.05;45.88
6038;BME280;3047;42.600;23.470;2023-04-02T11:47:17;92252.84;;;17.21;46.80
6038;BME280;3047;42.600;23.470;2023-04-02T11:50:05;92250.38;;;17.32;46.29
6038;BME280;3047;42.600;23.470;2023-04-02T11:52:52;92257.63;;;17.51;45.89
6038;BME280;3047;42.600;23.470;2023-04-02T11:55:23;92253.72;;;17.45;44.41
6038;BME280;3047;42.600;23.470;2023-04-02T12:01:21;92248.88;;;16.91;44.86
6038;BME280;3047;42.600;23.470;2023-04-02T12:04:15;92252.66;;;16.98;45.32
6038;BME280;3047;42.600;23.470;2023-04-02T12:06:54;92250.22;;;17.10;46.67
6038;BME280;3047;42.600;23.470;2023-04-02T12:09:26;92208.75;;;16.93;46.97
6038;BME280;3047;42.600;23.470;2023-04-02T12:11:55;92179.56;;;16.97;45.08
6038;BME280;3047;42.600;23.470;2023-04-02T12:14:44;92242.22;;;17.40;44.81
6038;BME280;3047;42.600;23.470;2023-04-02T12:17:20;92220.41;;;17.10;42.79
6038;BME280;3047;42.600;23.470;2023-04-02T12:19:52;92254.28;;;17.12;44.50
6038;BME280;3047;42.600;23.470;2023-04-02T12:22:21;92258.16;;;16.92;44.39
6038;BME280;3047;42.600;23.470;2023-04-02T12:24:48;92259.25;;;16.75;44.31
6038;BME280;3047;42.600;23.470;2023-04-02T12:27:17;92252.69;;;16.59;45.49
6038;BME280;3047;42.600;23.470;2023-04-02T12:29:48;92246.25;;;16.53;45.22
6038;BME280;3047;42.600;23.470;2023-04-02T12:32:23;92248.44;;;16.32;45.89
6038;BME280;3047;42.600;23.470;2023-04-02T12:34:51;92211.69;;;16.09;46.15
6038;BME280;3047;42.600;23.470;2023-04-02T12:37:20;92242.34;;;16.07;45.87
6038;BME280;3047;42.600;23.470;2023-04-02T12:39:56;92215.22;;;15.79;46.05
6038;BME280;3047;42.600;23.470;2023-04-02T12:42:27;92246.28;;;15.99;46.08
6038;BME280;3047;42.600;23.470;2023-04-02T12:44:54;92248.13;;;15.97;46.56
6038;BME280;3047;42.600;23.470;2023-04-02T12:47:23;92246.13;;;15.88;47.40
6038;BME280;3047;42.600;23.470;2023-04-02T12:49:51;92245.66;;;15.95;46.00
6038;BME280;3047;42.600;23.470;2023-04-02T12:52:20;92243.09;;;15.95;46.85
6038;BME280;3047;42.600;23.470;2023-04-02T12:54:50;92244.47;;;16.01;46.42
6038;BME280;3047;42.600;23.470;2023-04-02T12:57:32;92237.97;;;16.10;46.80
6038;BME280;3047;42.600;23.470;2023-04-02T13:00:01;92211.28;;;16.15;47.01
6038;BME280;3047;42.600;23.470;2023-04-02T13:02:42;92232.72;;;16.25;46.17
6038;BME280;3047;42.600;23.470;2023-04-02T13:05:09;92211.09;;;16.18;47.05
6038;BME280;3047;42.600;23.470;2023-04-02T13:07:37;92238.06;;;16.48;46.82
6038;BME280;3047;42.600;23.470;2023-04-02T13:10:05;92235.94;;;16.42;44.88
6038;BME280;3047;42.600;23.470;2023-04-02T13:12:47;92229.97;;;16.28;45.85
6038;BME280;3047;42.600;23.470;2023-04-02T13:15:20;92230.47;;;16.21;46.79
6038;BME280;3047;42.600;23.470;2023-04-02T13:18:04;92204.59;;;16.00;45.33
6038;BME280;3047;42.600;23.470;2023-04-02T13:20:33;92228.31;;;16.15;44.92
6038;BME280;3047;42.600;23.470;2023-04-02T13:23:21;92227.88;;;16.08;47.79
6038;BME280;3047;42.600;23.470;2023-04-02T13:25:49;92228.31;;;16.15;45.70
6038;BME280;3047;42.600;23.470;2023-04-02T13:28:16;92224.31;;;16.11;44.97
6038;BME280;3047;42.600;23.470;2023-04-02T13:30:43;92225.56;;;16.18;46.19
6038;BME280;3047;42.600;23.470;2023-04-02T13:33:12;92228.53;;;16.24;44.52
6038;BME280;3047;42.600;23.470;2023-04-02T13:35:39;92218.53;;;16.09;44.84
6038;BME280;3047;42.600;23.470;2023-04-02T13:38:06;92226.56;;;16.15;45.40
6038;BME280;3047;42.600;23.470;2023-04-02T13:40:34;92231.38;;;16.20;45.17
6038;BME280;3047;42.600;23.470;2023-04-02T13:43:01;92218.09;;;16.02;43.71
6038;BME280;3047;42.600;23.470;2023-04-02T13:45:31;92229.16;;;15.88;44.92
6038;BME280;3047;42.600;23.470;2023-04-02T13:47:58;92238.94;;;15.94;44.73
6038;BME280;3047;42.600;23.470;2023-04-02T13:50:29;92232.22;;;15.93;45.00
6038;BME280;3047;42.600;23.470;2023-04-02T13:52:57;92238.31;;;15.91;45.30
6038;BME280;3047;42.600;23.470;2023-04-02T13:55:26;92227.75;;;15.97;44.86